Darstellungsparameter: Aktuell verwendete Einstellungen:
Skalierung der Graphiken ... ?
xyx+y,   Skalierungsfaktor:      Skalierung: Modus: x, Faktor: 1
Darstellungszeitraum ... ?
Vom - - bis: - -   Zeitraum: 10.05.2010 - 12.05.2010
Min/Max/Avg-Anzeige ... ?
Zeige MMA aktuell
Zeige MMA Monat
Zeige MMA alles
Zeige --A aktuell
Zeige --A Monat
Zeige --A alles
Keine MMA-Anzeige
MMA:
Average (ber die Originaldaten)
MMA-Basis: 10.05.2010 - 12.05.2010
Quicknavigation für Darstellung... ?
Tage:      1T, 2T, 3T, 5T -1T -2T -3T -5T +1T +2T +3T +5T
Wochen: 1W, 2W, 3W -1W -2W -3W +1W +2W +3W
Monate: 1M, 3M, 6M -1M -3M -6M +1M +3M +6M
Jahre:    1J, 3J, 5J, 10J -1J -3J -5J -10J +1J +3J +5J +10J
Nutze für die Darstellung ... ?
Originaldaten oder Mittelwerte auf ...
Stundenbasis Tagesbasis Wochenbasis
Monatsbasis Jahresbasis      Datenbasis: Original-Daten
Darstellen als:
Statistik (Auto) Statistik J:M      Darstellung:
Zur Graphik,    zurück zur Übersicht aller Sensoren.
 
Tabellarische Datenbersicht: ?
 
Sensor: Nr:Datum:Temp:Abs-Feuchte:Windchill:Wind:
Aussen-T/F 1 10-05-2010 00:02:05 10.4 C 7.13 g/m*3 10.4 C 0 km/h
2 10-05-2010 00:14:05 10.5 C 7.18 g/m*3 10.5 C 0 km/h
3 10-05-2010 00:26:05 10.3 C 7.09 g/m*3 10.3 C 0 km/h
4 10-05-2010 00:38:05 10.1 C 7.09 g/m*3 10.1 C 0 km/h
5 10-05-2010 00:50:05 9.8 C 7.24 g/m*3 9.8 C 0 km/h
6 10-05-2010 01:02:05 9.8 C 7.24 g/m*3 9.8 C 0 km/h
7 10-05-2010 01:14:05 9.8 C 7.33 g/m*3 9.8 C 0 km/h
8 10-05-2010 01:26:05 9.9 C 7.38 g/m*3 9.9 C 0 km/h
9 10-05-2010 01:38:05 10 C 7.24 g/m*3 10 C 0 km/h
10 10-05-2010 01:50:05 9.8 C 7.24 g/m*3 9.8 C 0 km/h
11 10-05-2010 02:02:05 9.7 C 7.19 g/m*3 9.7 C 0 km/h
12 10-05-2010 02:14:05 9.5 C 7.19 g/m*3 9.5 C 0 km/h
13 10-05-2010 02:26:05 9.4 C 7.24 g/m*3 9.4 C 0 km/h
14 10-05-2010 02:38:05 9.4 C 7.24 g/m*3 9.4 C 0 km/h
15 10-05-2010 02:50:05 9.4 C 7.33 g/m*3 9.4 C 0 km/h
16 10-05-2010 03:02:05 9.2 C 7.23 g/m*3 9.2 C 0 km/h
17 10-05-2010 03:14:05 9 C 7.14 g/m*3 9 C 0 km/h
18 10-05-2010 03:26:05 8.8 C 7.14 g/m*3 8.8 C 0 km/h
19 10-05-2010 03:38:05 8.7 C 7.18 g/m*3 8.7 C 0 km/h
20 10-05-2010 03:50:06 8.7 C 7.26 g/m*3 8.7 C 0 km/h
21 10-05-2010 04:02:06 8.6 C 7.22 g/m*3 8.6 C 0 km/h
22 10-05-2010 04:14:06 8.6 C 7.22 g/m*3 8.6 C 0 km/h
23 10-05-2010 04:26:06 8.6 C 7.3 g/m*3 8.6 C 0 km/h
24 10-05-2010 04:38:06 8.6 C 7.3 g/m*3 8.6 C 0 km/h
25 10-05-2010 04:50:06 8.7 C 7.26 g/m*3 8.7 C 0 km/h
Sensor: Nr:Datum:Temp:Abs-Feuchte:Windchill:Wind:
Aussen-T/F 26 10-05-2010 05:02:06 8.6 C 7.22 g/m*3 8.6 C 0 km/h
27 10-05-2010 05:14:06 8.6 C 7.22 g/m*3 8.6 C 0 km/h
28 10-05-2010 05:26:06 8.6 C 7.3 g/m*3 8.6 C 0 km/h
29 10-05-2010 05:38:06 8.7 C 7.35 g/m*3 8.7 C 0 km/h
30 10-05-2010 05:50:06 8.8 C 7.31 g/m*3 8.8 C 0 km/h
31 10-05-2010 06:02:06 8.7 C 7.26 g/m*3 8.7 C 0 km/h
32 10-05-2010 06:14:06 8.7 C 7.26 g/m*3 8.7 C 0 km/h
33 10-05-2010 06:26:06 8.8 C 7.31 g/m*3 8.8 C 0 km/h
34 10-05-2010 06:38:04 8.9 C 7.36 g/m*3 8.9 C 0 km/h
35 10-05-2010 06:50:02 9 C 7.32 g/m*3 9 C 0 km/h
36 10-05-2010 07:02:02 9.1 C 7.36 g/m*3 9.1 C 0 km/h
37 10-05-2010 07:14:02 9.4 C 7.51 g/m*3 9.4 C 0 km/h
38 10-05-2010 07:26:01 9.6 C 7.6 g/m*3 9.6 C 0 km/h
39 10-05-2010 07:38:02 9.8 C 7.7 g/m*3 9.8 C 0 km/h
40 10-05-2010 07:50:02 10.2 C 7.71 g/m*3 10.2 C 0 km/h
41 10-05-2010 08:02:02 10.5 C 7.76 g/m*3 10.5 C 0 km/h
42 10-05-2010 08:14:02 10.6 C 7.71 g/m*3 10.6 C 0 km/h
43 10-05-2010 08:26:02 10.7 C 7.66 g/m*3 10.7 C 0 km/h
44 10-05-2010 08:38:02 10.7 C 7.46 g/m*3 10.7 C 0 km/h
45 10-05-2010 08:50:02 10.7 C 7.37 g/m*3 10.7 C 0 km/h
46 10-05-2010 09:02:02 10.8 C 7.41 g/m*3 10.8 C 0 km/h
47 10-05-2010 09:14:03 10.8 C 7.22 g/m*3 10.8 C 0 km/h
48 10-05-2010 09:26:02 10.7 C 7.27 g/m*3 10.7 C 0 km/h
49 10-05-2010 09:38:02 11 C 7.21 g/m*3 11 C 0 km/h
50 10-05-2010 09:50:02 11.1 C 7.25 g/m*3 11.1 C 0 km/h
Sensor: Nr:Datum:Temp:Abs-Feuchte:Windchill:Wind:
Aussen-T/F 51 10-05-2010 10:02:02 11.1 C 7.15 g/m*3 11.1 C 0 km/h
52 10-05-2010 10:14:02 11.4 C 7.08 g/m*3 11.4 C 0 km/h
53 10-05-2010 10:26:03 11.2 C 7.1 g/m*3 11.2 C 0 km/h
54 10-05-2010 10:38:02 11.6 C 7.17 g/m*3 11.6 C 0 km/h
55 10-05-2010 10:50:02 11.4 C 6.98 g/m*3 11.4 C 0 km/h
56 10-05-2010 11:02:02 11.5 C 7.13 g/m*3 11.5 C 0 km/h
57 10-05-2010 11:14:02 11.5 C 7.02 g/m*3 11.5 C 0 km/h
58 10-05-2010 11:26:02 11.5 C 7.02 g/m*3 11.5 C 0 km/h
59 10-05-2010 11:38:02 11.3 C 7.04 g/m*3 11.3 C 0 km/h
60 10-05-2010 11:50:02 11.7 C 7.22 g/m*3 11.7 C 0 km/h
61 10-05-2010 12:02:03 11.7 C 7.11 g/m*3 11.7 C 0 km/h
62 10-05-2010 12:14:03 11.6 C 6.96 g/m*3 11.6 C 0 km/h
63 10-05-2010 12:26:02 12.7 C 7.01 g/m*3 12.7 C 0 km/h
64 10-05-2010 12:38:03 12.9 C 6.76 g/m*3 12.9 C 0 km/h
65 10-05-2010 12:50:02 14.1 C 6.8 g/m*3 14.1 C 0 km/h
66 10-05-2010 13:02:02 13.5 C 6.43 g/m*3 13.5 C 0 km/h
67 10-05-2010 13:14:02 13.5 C 6.43 g/m*3 13.5 C 0 km/h
68 10-05-2010 13:26:01 14.7 C 6.17 g/m*3 14.7 C 0 km/h
69 10-05-2010 13:38:02 15.3 C 6.4 g/m*3 15.3 C 0 km/h
70 10-05-2010 13:50:02 15.4 C 6.18 g/m*3 15.4 C 0 km/h
71 10-05-2010 14:02:02 15.3 C 6.01 g/m*3 15.3 C 0 km/h
72 10-05-2010 14:14:02 15.5 C 6.08 g/m*3 15.5 C 0 km/h
73 10-05-2010 14:26:02 14.8 C 5.95 g/m*3 14.8 C 0 km/h
74 10-05-2010 14:38:02 14.7 C 5.92 g/m*3 14.7 C 0 km/h
75 10-05-2010 14:50:02 14.7 C 5.92 g/m*3 14.7 C 0 km/h
Sensor: Nr:Datum:Temp:Abs-Feuchte:Windchill:Wind:
Aussen-T/F 76 10-05-2010 15:02:02 15 C 5.77 g/m*3 15 C 0 km/h
77 10-05-2010 15:14:02 15.4 C 5.78 g/m*3 15.4 C 0 km/h
78 10-05-2010 15:26:02 15.1 C 5.93 g/m*3 15.1 C 0 km/h
79 10-05-2010 15:38:02 15.3 C 5.62 g/m*3 15.3 C 0 km/h
80 10-05-2010 15:50:02 14.7 C 5.79 g/m*3 14.7 C 0 km/h
81 10-05-2010 16:02:02 15.2 C 5.84 g/m*3 15.2 C 0 km/h
82 10-05-2010 16:14:02 15.8 C 5.79 g/m*3 15.8 C 0 km/h
83 10-05-2010 16:26:02 15.7 C 5.49 g/m*3 15.7 C 0 km/h
84 10-05-2010 16:38:02 16.2 C 5.52 g/m*3 16.2 C 0 km/h
85 10-05-2010 16:50:02 16.3 C 5.13 g/m*3 16.3 C 0 km/h
86 10-05-2010 17:02:02 15.5 C 5.42 g/m*3 15.5 C 0 km/h
87 10-05-2010 17:14:02 15.6 C 5.45 g/m*3 15.6 C 0 km/h
88 10-05-2010 17:26:02 16 C 5.31 g/m*3 16 C 0 km/h
89 10-05-2010 17:38:02 16 C 5.31 g/m*3 16 C 0 km/h
90 10-05-2010 17:50:01 15.8 C 5.38 g/m*3 15.8 C 0 km/h
91 10-05-2010 18:02:02 16.4 C 5.02 g/m*3 16.4 C 0 km/h
92 10-05-2010 18:14:02 17.3 C 5.01 g/m*3 17.3 C 0 km/h
93 10-05-2010 18:26:02 17.6 C 5.1 g/m*3 17.6 C 0 km/h
94 10-05-2010 18:38:01 17.1 C 4.66 g/m*3 17.1 C 0 km/h
95 10-05-2010 18:50:02 15.8 C 4.71 g/m*3 15.8 C 0 km/h
96 10-05-2010 19:02:01 15.4 C 4.73 g/m*3 15.4 C 0 km/h
97 10-05-2010 19:14:01 15.6 C 4.92 g/m*3 15.6 C 0 km/h
98 10-05-2010 19:26:02 14.9 C 4.97 g/m*3 14.9 C 0 km/h
99 10-05-2010 19:38:01 14.7 C 5.04 g/m*3 14.7 C 0 km/h
100 10-05-2010 19:50:02 14.5 C 5.1 g/m*3 14.5 C 0 km/h
Sensor: Nr:Datum:Temp:Abs-Feuchte:Windchill:Wind:
Aussen-T/F 101 10-05-2010 20:02:01 14.5 C 4.97 g/m*3 14.5 C 0 km/h
102 10-05-2010 20:14:01 14.5 C 4.97 g/m*3 14.5 C 0 km/h
103 10-05-2010 20:26:02 14.3 C 5.04 g/m*3 14.3 C 0 km/h
104 10-05-2010 20:38:01 13.7 C 5.09 g/m*3 13.7 C 0 km/h
105 10-05-2010 20:50:02 13.1 C 5.14 g/m*3 13.1 C 0 km/h
106 10-05-2010 21:02:02 12.8 C 5.38 g/m*3 12.8 C 0 km/h
107 10-05-2010 21:14:02 12.3 C 5.43 g/m*3 12.3 C 0 km/h
108 10-05-2010 21:26:02 11.9 C 5.51 g/m*3 11.9 C 0 km/h
109 10-05-2010 21:38:02 11.6 C 5.4 g/m*3 11.6 C 0 km/h
110 10-05-2010 21:50:02 11.5 C 5.58 g/m*3 11.5 C 0 km/h
111 10-05-2010 22:02:02 11.5 C 5.68 g/m*3 11.5 C 0 km/h
112 10-05-2010 22:14:02 11.5 C 5.58 g/m*3 11.5 C 0 km/h
113 10-05-2010 22:27:04 11.2 C 5.57 g/m*3 11.2 C 0 km/h
114 10-05-2010 22:39:04 11.1 C 5.54 g/m*3 11.1 C 0 km/h
115 10-05-2010 22:51:04 11.8 C 5.79 g/m*3 11.8 C 0 km/h
116 10-05-2010 23:03:04 11.6 C 5.92 g/m*3 11.6 C 0 km/h
117 10-05-2010 23:15:05 11.2 C 5.68 g/m*3 11.2 C 0 km/h
118 10-05-2010 23:27:05 11.3 C 5.81 g/m*3 11.3 C 0 km/h
119 10-05-2010 23:39:05 11.4 C 5.85 g/m*3 11.4 C 0 km/h
120 10-05-2010 23:51:05 11.2 C 5.78 g/m*3 11.2 C 0 km/h
121 11-05-2010 00:03:05 11 C 5.71 g/m*3 11 C 0 km/h
122 11-05-2010 00:15:05 11.1 C 5.74 g/m*3 11.1 C 0 km/h
123 11-05-2010 00:27:05 10.7 C 5.7 g/m*3 10.7 C 0 km/h
124 11-05-2010 00:39:05 10.8 C 5.83 g/m*3 10.8 C 0 km/h
125 11-05-2010 00:51:05 10.8 C 5.83 g/m*3 10.8 C 0 km/h
Sensor: Nr:Datum:Temp:Abs-Feuchte:Windchill:Wind:
Aussen-T/F 126 11-05-2010 01:03:05 10.4 C 5.88 g/m*3 10.4 C 0 km/h
127 11-05-2010 01:15:05 10.5 C 5.82 g/m*3 10.5 C 0 km/h
128 11-05-2010 01:27:05 10.5 C 5.92 g/m*3 10.5 C 0 km/h
129 11-05-2010 01:39:05 10.4 C 5.98 g/m*3 10.4 C 0 km/h
130 11-05-2010 01:51:05 10.3 C 6.03 g/m*3 10.3 C 0 km/h
131 11-05-2010 02:03:05 10.1 C 5.96 g/m*3 10.1 C 0 km/h
132 11-05-2010 02:15:05 10 C 6.01 g/m*3 10 C 0 km/h
133 11-05-2010 02:27:05 10.1 C 6.05 g/m*3 10.1 C 0 km/h
134 11-05-2010 02:39:05 10.1 C 6.05 g/m*3 10.1 C 0 km/h
135 11-05-2010 02:51:05 10.2 C 6.09 g/m*3 10.2 C 0 km/h
136 11-05-2010 03:03:05 10 C 6.11 g/m*3 10 C 0 km/h
137 11-05-2010 03:15:05 9.7 C 5.99 g/m*3 9.7 C 0 km/h
138 11-05-2010 03:27:05 9.9 C 6.07 g/m*3 9.9 C 0 km/h
139 11-05-2010 03:39:06 9.7 C 6.27 g/m*3 9.7 C 0 km/h
140 11-05-2010 03:51:06 9.6 C 6.32 g/m*3 9.6 C 0 km/h
141 11-05-2010 04:03:06 9.7 C 6.45 g/m*3 9.7 C 0 km/h
142 11-05-2010 04:15:06 9.5 C 6.1 g/m*3 9.5 C 0 km/h
143 11-05-2010 04:27:06 9.4 C 6.06 g/m*3 9.4 C 0 km/h
144 11-05-2010 04:39:06 9.3 C 6.02 g/m*3 9.3 C 0 km/h
145 11-05-2010 04:51:06 9.4 C 6.15 g/m*3 9.4 C 0 km/h
146 11-05-2010 05:03:06 9.4 C 6.15 g/m*3 9.4 C 0 km/h
147 11-05-2010 05:15:06 9.3 C 6.11 g/m*3 9.3 C 0 km/h
148 11-05-2010 05:27:06 9.5 C 6.19 g/m*3 9.5 C 0 km/h
149 11-05-2010 05:39:06 9.4 C 6.15 g/m*3 9.4 C 0 km/h
150 11-05-2010 05:51:06 9.3 C 6.2 g/m*3 9.3 C 0 km/h
Sensor: Nr:Datum:Temp:Abs-Feuchte:Windchill:Wind:
Aussen-T/F 151 11-05-2010 06:03:06 9.4 C 6.24 g/m*3 9.4 C 0 km/h
152 11-05-2010 06:15:06 9.3 C 6.11 g/m*3 9.3 C 0 km/h
153 11-05-2010 06:27:06 9.3 C 6.2 g/m*3 9.3 C 0 km/h
154 11-05-2010 06:39:06 9.1 C 6.12 g/m*3 9.1 C 0 km/h
155 11-05-2010 06:51:02 9.1 C 6.12 g/m*3 9.1 C 0 km/h
156 11-05-2010 07:03:01 9.3 C 6.29 g/m*3 9.3 C 0 km/h
157 11-05-2010 07:15:02 9.5 C 6.37 g/m*3 9.5 C 0 km/h
158 11-05-2010 07:27:02 9.6 C 6.32 g/m*3 9.6 C 0 km/h
159 11-05-2010 07:39:02 9.7 C 6.27 g/m*3 9.7 C 0 km/h
160 11-05-2010 07:51:01 9.9 C 6.35 g/m*3 9.9 C 0 km/h
161 11-05-2010 08:03:02 10.1 C 6.24 g/m*3 10.1 C 0 km/h
162 11-05-2010 08:15:01 10.5 C 6.3 g/m*3 10.5 C 0 km/h
163 11-05-2010 08:27:01 10.7 C 6.19 g/m*3 10.7 C 0 km/h
164 11-05-2010 08:39:01 11.2 C 6.28 g/m*3 11.2 C 0 km/h
165 11-05-2010 08:51:01 12 C 6.29 g/m*3 12 C 0 km/h
166 11-05-2010 09:03:02 11.7 C 6.07 g/m*3 11.7 C 0 km/h
167 11-05-2010 09:15:01 11.7 C 6.07 g/m*3 11.7 C 0 km/h
168 11-05-2010 09:27:01 11.9 C 6.14 g/m*3 11.9 C 0 km/h
169 11-05-2010 09:39:02 12.8 C 6.05 g/m*3 12.8 C 0 km/h
170 11-05-2010 09:51:01 12.7 C 5.79 g/m*3 12.7 C 0 km/h
171 11-05-2010 10:03:02 12.8 C 6.16 g/m*3 12.8 C 0 km/h
172 11-05-2010 10:15:02 13 C 6.01 g/m*3 13 C 0 km/h
173 11-05-2010 10:27:02 13 C 5.9 g/m*3 13 C 0 km/h
174 11-05-2010 10:39:01 12.3 C 5.97 g/m*3 12.3 C 0 km/h
175 11-05-2010 10:51:01 11.8 C 6.21 g/m*3 11.8 C 0 km/h
Sensor: Nr:Datum:Temp:Abs-Feuchte:Windchill:Wind:
Aussen-T/F 176 11-05-2010 11:03:01 12 C 6.07 g/m*3 12 C 0 km/h
177 11-05-2010 11:15:02 12 C 6.07 g/m*3 12 C 0 km/h
178 11-05-2010 11:27:02 12 C 6.18 g/m*3 12 C 0 km/h
179 11-05-2010 11:39:02 12.5 C 6.38 g/m*3 12.5 C 0 km/h
180 11-05-2010 11:51:02 14.1 C 6.19 g/m*3 14.1 C 0 km/h
181 11-05-2010 12:03:02 14.1 C 5.95 g/m*3 14.1 C 0 km/h
182 11-05-2010 12:15:02 13.7 C 6.28 g/m*3 13.7 C 0 km/h
183 11-05-2010 12:27:02 14.8 C 6.33 g/m*3 14.8 C 0 km/h
184 11-05-2010 12:39:01 14.1 C 5.95 g/m*3 14.1 C 0 km/h
185 11-05-2010 12:51:02 14.3 C 6.27 g/m*3 14.3 C 0 km/h
186 11-05-2010 13:03:01 13.4 C 6.16 g/m*3 13.4 C 0 km/h
187 11-05-2010 13:15:01 13.7 C 6.39 g/m*3 13.7 C 0 km/h
188 11-05-2010 13:27:01 14.2 C 6.23 g/m*3 14.2 C 0 km/h
189 11-05-2010 13:39:01 14.1 C 6.19 g/m*3 14.1 C 0 km/h
190 11-05-2010 13:51:02 13.3 C 6.35 g/m*3 13.3 C 0 km/h
191 11-05-2010 14:03:01 14.1 C 6.43 g/m*3 14.1 C 0 km/h
192 11-05-2010 14:15:01 14 C 6.27 g/m*3 14 C 0 km/h
193 11-05-2010 14:27:01 14.1 C 6.43 g/m*3 14.1 C 0 km/h
194 11-05-2010 14:39:02 14 C 6.39 g/m*3 14 C 0 km/h
195 11-05-2010 14:51:02 14 C 6.51 g/m*3 14 C 0 km/h
196 11-05-2010 15:03:02 14.4 C 6.55 g/m*3 14.4 C 0 km/h
197 11-05-2010 15:15:02 14.1 C 6.31 g/m*3 14.1 C 0 km/h
198 11-05-2010 15:27:02 14.7 C 6.55 g/m*3 14.7 C 0 km/h
199 11-05-2010 15:39:02 14.5 C 6.34 g/m*3 14.5 C 0 km/h
200 11-05-2010 15:51:02 14.3 C 6.39 g/m*3 14.3 C 0 km/h
Sensor: Nr:Datum:Temp:Abs-Feuchte:Windchill:Wind:
Aussen-T/F 201 11-05-2010 16:03:03 14.3 C 6.51 g/m*3 14.3 C 0 km/h
202 11-05-2010 16:15:02 14.8 C 6.71 g/m*3 14.8 C 0 km/h
203 11-05-2010 16:27:02 15.6 C 6.65 g/m*3 15.6 C 0 km/h
204 11-05-2010 16:39:03 15.9 C 6.5 g/m*3 15.9 C 0 km/h
205 11-05-2010 16:51:01 15.6 C 6.52 g/m*3 15.6 C 0 km/h
206 11-05-2010 17:03:02 14.9 C 6.75 g/m*3 14.9 C 0 km/h
207 11-05-2010 17:15:01 15.1 C 6.58 g/m*3 15.1 C 0 km/h
208 11-05-2010 17:27:01 14.7 C 6.8 g/m*3 14.7 C 0 km/h
209 11-05-2010 17:39:02 14.8 C 6.71 g/m*3 14.8 C 0 km/h
210 11-05-2010 17:51:01 14.7 C 6.8 g/m*3 14.7 C 0 km/h
211 11-05-2010 18:03:02 14.5 C 6.96 g/m*3 14.5 C 0 km/h
212 11-05-2010 18:15:02 13.9 C 7.07 g/m*3 13.9 C 0 km/h
213 11-05-2010 18:27:02 12.5 C 7.48 g/m*3 12.5 C 0 km/h
214 11-05-2010 18:39:02 11.9 C 8.05 g/m*3 11.9 C 0 km/h
215 11-05-2010 18:51:01 11.6 C 8.21 g/m*3 11.6 C 0 km/h
216 11-05-2010 19:03:02 11.3 C 8.16 g/m*3 11.3 C 0 km/h
217 11-05-2010 19:15:02 11.1 C 8.36 g/m*3 11.1 C 0 km/h
218 11-05-2010 19:27:02 10.9 C 8.36 g/m*3 10.9 C 0 km/h
219 11-05-2010 19:39:02 10.8 C 8.3 g/m*3 10.8 C 0 km/h
220 11-05-2010 19:51:01 10.6 C 8.39 g/m*3 10.6 C 0 km/h
221 11-05-2010 20:03:02 10.5 C 8.44 g/m*3 10.5 C 0 km/h
222 11-05-2010 20:15:02 10.2 C 8.37 g/m*3 10.2 C 0 km/h
223 11-05-2010 20:27:02 10.1 C 8.42 g/m*3 10.1 C 0 km/h
224 11-05-2010 20:39:02 10 C 8.46 g/m*3 10 C 0 km/h
225 11-05-2010 20:51:02 9.8 C 8.54 g/m*3 9.8 C 0 km/h
Sensor: Nr:Datum:Temp:Abs-Feuchte:Windchill:Wind:
Aussen-T/F 226 11-05-2010 21:03:01 9.8 C 8.54 g/m*3 9.8 C 0 km/h
227 11-05-2010 21:15:02 9.9 C 8.59 g/m*3 9.9 C 0 km/h
228 11-05-2010 21:27:03 10 C 8.64 g/m*3 10 C 0 km/h
229 11-05-2010 21:39:01 9.8 C 8.63 g/m*3 9.8 C 0 km/h
230 11-05-2010 21:51:02 9.8 C 8.63 g/m*3 9.8 C 0 km/h
231 11-05-2010 22:03:02 9.7 C 8.57 g/m*3 9.7 C 0 km/h
232 11-05-2010 22:15:01 9.6 C 8.52 g/m*3 9.6 C 0 km/h
233 11-05-2010 22:27:01 9.8 C 8.72 g/m*3 9.8 C 0 km/h
234 11-05-2010 22:40:03 9.6 C 8.61 g/m*3 9.6 C 0 km/h
235 11-05-2010 22:52:03 9.7 C 8.67 g/m*3 9.7 C 0 km/h
236 11-05-2010 23:04:03 9.8 C 8.72 g/m*3 9.8 C 0 km/h
237 11-05-2010 23:16:03 9.8 C 8.72 g/m*3 9.8 C 0 km/h
238 11-05-2010 23:28:03 9.8 C 8.72 g/m*3 9.8 C 0 km/h
239 11-05-2010 23:40:03 9.9 C 8.78 g/m*3 9.9 C 0 km/h
240 11-05-2010 23:52:03 9.7 C 8.67 g/m*3 9.7 C 0 km/h
241 12-05-2010 00:04:03 9.7 C 8.67 g/m*3 9.7 C 0 km/h
242 12-05-2010 00:16:03 9.6 C 8.61 g/m*3 9.6 C 0 km/h
243 12-05-2010 00:28:03 9.1 C 8.34 g/m*3 9.1 C 0 km/h
244 12-05-2010 00:40:03 9.1 C 8.34 g/m*3 9.1 C 0 km/h
245 12-05-2010 00:52:03 9.1 C 8.34 g/m*3 9.1 C 0 km/h
246 12-05-2010 01:04:03 9.1 C 8.34 g/m*3 9.1 C 0 km/h
247 12-05-2010 01:16:03 8.8 C 8.27 g/m*3 8.8 C 0 km/h
248 12-05-2010 01:28:04 8.5 C 8.03 g/m*3 8.5 C 0 km/h
249 12-05-2010 01:40:04 8.4 C 7.97 g/m*3 8.4 C 0 km/h
250 12-05-2010 01:52:04 7.8 C 7.75 g/m*3 7.8 C 0 km/h
Sensor: Nr:Datum:Temp:Abs-Feuchte:Windchill:Wind:
Aussen-T/F 251 12-05-2010 02:04:04 7.5 C 7.52 g/m*3 7.5 C 0 km/h
252 12-05-2010 02:16:04 7.8 C 7.75 g/m*3 7.8 C 0 km/h
253 12-05-2010 02:28:04 7.9 C 7.8 g/m*3 7.9 C 0 km/h
254 12-05-2010 02:40:04 7.9 C 7.8 g/m*3 7.9 C 0 km/h
255 12-05-2010 02:52:04 7.5 C 7.6 g/m*3 7.5 C 0 km/h
256 12-05-2010 03:04:04 7.3 C 7.43 g/m*3 7.3 C 0 km/h
257 12-05-2010 03:16:04 7.2 C 7.38 g/m*3 7.2 C 0 km/h
258 12-05-2010 03:28:04 7.1 C 7.33 g/m*3 7.1 C 0 km/h
259 12-05-2010 03:40:04 7 C 7.28 g/m*3 7 C 0 km/h
260 12-05-2010 03:52:04 7 C 7.21 g/m*3 7 C 0 km/h
261 12-05-2010 04:04:04 6.9 C 7.16 g/m*3 6.9 C 0 km/h
262 12-05-2010 04:16:04 6.9 C 7.08 g/m*3 6.9 C 0 km/h
263 12-05-2010 04:28:04 6.9 C 7.01 g/m*3 6.9 C 0 km/h
264 12-05-2010 04:40:04 6.9 C 6.93 g/m*3 6.9 C 0 km/h
265 12-05-2010 04:52:04 6.8 C 6.81 g/m*3 6.8 C 0 km/h
266 12-05-2010 05:04:04 6.8 C 6.73 g/m*3 6.8 C 0 km/h
267 12-05-2010 05:16:04 6.8 C 6.65 g/m*3 6.8 C 0 km/h
268 12-05-2010 05:28:04 6.8 C 6.65 g/m*3 6.8 C 0 km/h
269 12-05-2010 05:40:05 6.8 C 6.65 g/m*3 6.8 C 0 km/h
270 12-05-2010 05:52:05 6.8 C 6.65 g/m*3 6.8 C 0 km/h
271 12-05-2010 06:04:05 6.7 C 6.61 g/m*3 6.7 C 0 km/h
272 12-05-2010 06:16:05 6.8 C 6.58 g/m*3 6.8 C 0 km/h
273 12-05-2010 06:28:05 6.8 C 6.5 g/m*3 6.8 C 0 km/h
274 12-05-2010 06:40:05 6.8 C 6.58 g/m*3 6.8 C 0 km/h
275 12-05-2010 06:52:05 6.8 C 6.58 g/m*3 6.8 C 0 km/h
Sensor: Nr:Datum:Temp:Abs-Feuchte:Windchill:Wind:
Aussen-T/F 276 12-05-2010 07:04:03 6.9 C 6.54 g/m*3 6.9 C 0 km/h
277 12-05-2010 07:16:03 7 C 6.59 g/m*3 7 C 0 km/h
278 12-05-2010 07:28:03 7.1 C 6.71 g/m*3 7.1 C 0 km/h
279 12-05-2010 07:40:03 7.2 C 6.67 g/m*3 7.2 C 0 km/h
280 12-05-2010 07:52:02 7.2 C 6.59 g/m*3 7.2 C 0 km/h
281 12-05-2010 08:04:02 7.3 C 6.56 g/m*3 7.3 C 0 km/h
282 12-05-2010 08:16:02 7.6 C 6.69 g/m*3 7.6 C 0 km/h
283 12-05-2010 08:28:02 7.7 C 6.57 g/m*3 7.7 C 0 km/h
284 12-05-2010 08:40:02 7.8 C 6.45 g/m*3 7.8 C 0 km/h
285 12-05-2010 08:52:01 7.8 C 6.45 g/m*3 7.8 C 0 km/h
286 12-05-2010 09:04:02 8 C 6.37 g/m*3 8 C 0 km/h
287 12-05-2010 09:16:01 8.3 C 6.41 g/m*3 8.3 C 0 km/h
288 12-05-2010 09:28:01 8.4 C 6.19 g/m*3 8.4 C 0 km/h
289 12-05-2010 09:40:01 8.3 C 6.07 g/m*3 8.3 C 0 km/h
290 12-05-2010 09:52:01 8.4 C 6.11 g/m*3 8.4 C 0 km/h
291 12-05-2010 10:04:02 8.4 C 6.02 g/m*3 8.4 C 0 km/h
292 12-05-2010 10:16:01 8.6 C 6.1 g/m*3 8.6 C 0 km/h
293 12-05-2010 10:28:01 8.6 C 6.02 g/m*3 8.6 C 0 km/h
294 12-05-2010 10:40:01 8.7 C 5.97 g/m*3 8.7 C 0 km/h
295 12-05-2010 10:52:01 8.7 C 5.79 g/m*3 8.7 C 0 km/h
296 12-05-2010 11:04:01 8.7 C 5.79 g/m*3 8.7 C 0 km/h
297 12-05-2010 11:16:02 8.9 C 5.87 g/m*3 8.9 C 0 km/h
298 12-05-2010 11:28:02 8.9 C 5.61 g/m*3 8.9 C 0 km/h
299 12-05-2010 11:40:01 9.3 C 5.57 g/m*3 9.3 C 0 km/h
300 12-05-2010 11:52:01 10.1 C 5.67 g/m*3 10.1 C 0 km/h
Sensor: Nr:Datum:Temp:Abs-Feuchte:Windchill:Wind:
Aussen-T/F 301 12-05-2010 12:04:01 10 C 5.54 g/m*3 10 C 0 km/h
302 12-05-2010 12:16:02 9.7 C 5.35 g/m*3 9.7 C 0 km/h
303 12-05-2010 12:28:02 9.9 C 5.51 g/m*3 9.9 C 0 km/h
304 12-05-2010 12:40:01 10.5 C 5.33 g/m*3 10.5 C 0 km/h
305 12-05-2010 12:52:03 10.2 C 5.42 g/m*3 10.2 C 0 km/h
306 12-05-2010 13:04:02 10.5 C 5.43 g/m*3 10.5 C 0 km/h
307 12-05-2010 13:16:02 11.1 C 5.34 g/m*3 11.1 C 0 km/h
308 12-05-2010 13:28:02 10.7 C 5.3 g/m*3 10.7 C 0 km/h
309 12-05-2010 13:40:02 10.4 C 5.2 g/m*3 10.4 C 0 km/h
310 12-05-2010 13:52:02 10.7 C 5.21 g/m*3 10.7 C 0 km/h
311 12-05-2010 14:04:02 10.2 C 5.23 g/m*3 10.2 C 0 km/h
312 12-05-2010 14:16:02 10.2 C 5.23 g/m*3 10.2 C 0 km/h
313 12-05-2010 14:28:02 10.6 C 5.17 g/m*3 10.6 C 0 km/h
314 12-05-2010 14:40:01 10.9 C 5.17 g/m*3 10.9 C 0 km/h
315 12-05-2010 14:52:02 10.7 C 4.81 g/m*3 10.7 C 0 km/h
316 12-05-2010 15:04:01 11.1 C 5.14 g/m*3 11.1 C 0 km/h
317 12-05-2010 15:16:02 10.8 C 4.94 g/m*3 10.8 C 0 km/h
318 12-05-2010 15:28:02 10.8 C 4.84 g/m*3 10.8 C 0 km/h
319 12-05-2010 15:40:02 10.8 C 5.04 g/m*3 10.8 C 0 km/h
320 12-05-2010 15:52:02 10.7 C 5.11 g/m*3 10.7 C 0 km/h
321 12-05-2010 16:04:02 10.8 C 5.24 g/m*3 10.8 C 0 km/h
322 12-05-2010 16:16:02 10.9 C 5.17 g/m*3 10.9 C 0 km/h
323 12-05-2010 16:28:02 10.7 C 5.3 g/m*3 10.7 C 0 km/h
324 12-05-2010 16:40:02 10.3 C 5.17 g/m*3 10.3 C 0 km/h
325 12-05-2010 16:52:01 9.9 C 5.32 g/m*3 9.9 C 0 km/h
Sensor: Nr:Datum:Temp:Abs-Feuchte:Windchill:Wind:
Aussen-T/F 326 12-05-2010 17:04:02 9.6 C 5.22 g/m*3 9.6 C 0 km/h
327 12-05-2010 17:16:01 9.7 C 5.35 g/m*3 9.7 C 0 km/h
328 12-05-2010 17:28:01 9.9 C 5.32 g/m*3 9.9 C 0 km/h
329 12-05-2010 17:40:02 9.9 C 5.32 g/m*3 9.9 C 0 km/h
330 12-05-2010 17:52:02 9.6 C 5.22 g/m*3 9.6 C 0 km/h
331 12-05-2010 18:04:02 9.6 C 5.4 g/m*3 9.6 C 0 km/h
332 12-05-2010 18:16:01 9.3 C 5.39 g/m*3 9.3 C 0 km/h
333 12-05-2010 18:28:01 9.1 C 5.41 g/m*3 9.1 C 0 km/h
334 12-05-2010 18:40:02 9.1 C 5.5 g/m*3 9.1 C 0 km/h
335 12-05-2010 18:52:02 9 C 5.55 g/m*3 9 C 0 km/h
336 12-05-2010 19:04:02 9 C 5.64 g/m*3 9 C 0 km/h
337 12-05-2010 19:16:01 8.8 C 5.66 g/m*3 8.8 C 0 km/h
338 12-05-2010 19:28:01 9 C 5.73 g/m*3 9 C 0 km/h
339 12-05-2010 19:40:02 9 C 5.73 g/m*3 9 C 0 km/h
340 12-05-2010 19:52:02 8.7 C 5.71 g/m*3 8.7 C 0 km/h
341 12-05-2010 20:04:02 8.6 C 5.76 g/m*3 8.6 C 0 km/h
342 12-05-2010 20:16:02 8.6 C 5.84 g/m*3 8.6 C 0 km/h
343 12-05-2010 20:28:02 8.6 C 5.84 g/m*3 8.6 C 0 km/h
344 12-05-2010 20:40:02 8.5 C 5.81 g/m*3 8.5 C 0 km/h
345 12-05-2010 20:52:02 8.5 C 5.98 g/m*3 8.5 C 0 km/h
346 12-05-2010 21:04:02 8.5 C 5.89 g/m*3 8.5 C 0 km/h
347 12-05-2010 21:16:02 8.4 C 5.94 g/m*3 8.4 C 0 km/h
348 12-05-2010 21:28:02 8.5 C 6.06 g/m*3 8.5 C 0 km/h
349 12-05-2010 21:40:01 8.5 C 6.06 g/m*3 8.5 C 0 km/h
350 12-05-2010 21:52:02 8.3 C 6.07 g/m*3 8.3 C 0 km/h
Sensor: Nr:Datum:Temp:Abs-Feuchte:Windchill:Wind:
Aussen-T/F 351 12-05-2010 22:04:01 8 C 6.2 g/m*3 8 C 0 km/h
352 12-05-2010 22:17:03 8 C 6.37 g/m*3 8 C 0 km/h
353 12-05-2010 22:29:03 7.6 C 6.36 g/m*3 7.6 C 0 km/h
354 12-05-2010 22:41:03 7.5 C 6.48 g/m*3 7.5 C 0 km/h
355 12-05-2010 22:53:03 7.7 C 6.65 g/m*3 7.7 C 0 km/h
356 12-05-2010 23:05:03 7.8 C 6.69 g/m*3 7.8 C 0 km/h
357 12-05-2010 23:17:03 7.8 C 6.69 g/m*3 7.8 C 0 km/h
358 12-05-2010 23:29:03 7.8 C 6.69 g/m*3 7.8 C 0 km/h
359 12-05-2010 23:41:04 7.9 C 6.74 g/m*3 7.9 C 0 km/h
360 12-05-2010 23:53:04 7.7 C 6.57 g/m*3 7.7 C 0 km/h

Legende:
   Min
   Max


Maximal/Minimal-Werte vom 10.05.2010 - 12.05.2010

Sensor Min Max Avg
Temp
(Aussen-T/F)
6.7 °C
12-05-2010  06:04:05
17.6 °C
10-05-2010  18:26:02
10.72 °C
Abs-Feuchte
(Aussen-T/F)
4.66 g/m*3
10-05-2010  18:38:01
8.78 g/m*3
11-05-2010  23:40:03
6.47 g/m*3
Windchill
(Aussen-T/F)
6.7 C
12-05-2010  06:04:05
17.6 C
10-05-2010  18:26:02
10.69 C

Die Daten stammen von einer Davis Vantage Pro 2 Wetter-Station und werden unter Linux mit der Software wview2wettercgi und aufbereitet. Alle Angaben erfolgen ohne Gewähr für ihre Vollständigkeit oder Richtigkeit.
Kontakt: Rainer Krienke krienke@uni-koblenz.de . Meine Webseiten an der Uni Koblenz oder privat.
Version: $Revision: 0.78 $